createdAt,value
2022-12-19T00:04:41.175Z,3.1
2022-12-19T00:09:47.362Z,3.2
2022-12-19T00:14:53.569Z,3.2
2022-12-19T00:19:59.777Z,3.2
2022-12-19T00:25:05.984Z,3.2
2022-12-19T00:30:12.204Z,3.2
2022-12-19T00:35:18.408Z,3.3
2022-12-19T00:40:24.614Z,3.3
2022-12-19T00:45:30.882Z,3.3
2022-12-19T00:50:37.067Z,3.3
2022-12-19T00:55:43.237Z,3.3
2022-12-19T01:00:49.523Z,3.4
2022-12-19T01:05:55.650Z,3.4
2022-12-19T01:11:01.854Z,3.4
2022-12-19T01:16:08.080Z,3.4
2022-12-19T01:21:14.271Z,3.5
2022-12-19T01:26:20.479Z,3.5
2022-12-19T01:31:26.706Z,3.6
2022-12-19T01:36:32.896Z,3.6
2022-12-19T01:41:39.123Z,3.7
2022-12-19T01:46:45.353Z,3.7
2022-12-19T01:51:51.575Z,3.8
2022-12-19T01:56:57.703Z,3.8
2022-12-19T02:02:04.033Z,3.9
2022-12-19T02:07:16.085Z,3.9
2022-12-19T02:12:16.325Z,3.9
2022-12-19T02:17:22.540Z,4.0
2022-12-19T02:22:28.740Z,4.0
2022-12-19T02:27:40.715Z,4.1
2022-12-19T02:32:41.161Z,4.1
2022-12-19T02:37:47.451Z,4.2
2022-12-19T02:42:53.610Z,4.3
2022-12-19T02:48:02.405Z,4.3
2022-12-19T02:53:06.009Z,4.3
2022-12-19T02:58:12.216Z,4.4
2022-12-19T03:03:18.486Z,4.4
2022-12-19T03:08:24.641Z,4.5
2022-12-19T03:13:30.841Z,4.5
2022-12-19T03:18:37.081Z,4.6
2022-12-19T03:23:43.257Z,4.6
2022-12-19T03:33:55.677Z,4.7
2022-12-19T03:39:01.886Z,4.7
2022-12-19T03:44:08.129Z,4.8
2022-12-19T03:49:14.309Z,4.8
2022-12-19T03:54:20.620Z,4.9
2022-12-19T03:59:26.713Z,4.9
2022-12-19T04:04:32.919Z,4.9
2022-12-19T04:09:39.128Z,5.0
2022-12-19T04:14:45.361Z,5.0
2022-12-19T04:19:51.547Z,5.1
2022-12-19T04:24:57.756Z,5.2
2022-12-19T04:30:03.965Z,5.2
2022-12-19T04:35:10.175Z,5.3
2022-12-19T04:40:16.478Z,5.3
2022-12-19T04:45:22.583Z,5.3
2022-12-19T04:50:28.793Z,5.4
2022-12-19T04:55:35.005Z,5.4
2022-12-19T05:00:41.209Z,5.5
2022-12-19T05:05:47.419Z,5.6
2022-12-19T05:10:53.621Z,5.7
2022-12-19T05:15:59.883Z,5.7
2022-12-19T05:21:06.044Z,5.8
2022-12-19T05:26:11.259Z,5.9
2022-12-19T05:31:17.506Z,6.0
2022-12-19T05:36:27.600Z,6.1
2022-12-19T05:41:29.882Z,6.2
2022-12-19T05:46:36.122Z,6.3
2022-12-19T05:51:42.300Z,6.4
2022-12-19T05:56:48.518Z,6.5
2022-12-19T06:01:54.872Z,6.6
2022-12-19T06:07:00.907Z,6.8
2022-12-19T06:12:07.128Z,6.9
2022-12-19T06:17:13.324Z,7.0
2022-12-19T06:22:19.525Z,7.1
2022-12-19T06:27:25.749Z,7.2
2022-12-19T06:32:34.824Z,7.3
2022-12-19T06:37:39.609Z,7.4
2022-12-19T06:42:44.358Z,7.5
2022-12-19T06:52:56.796Z,7.8
2022-12-19T06:58:03.176Z,7.9
2022-12-19T07:03:09.224Z,8.0
2022-12-19T07:08:15.395Z,8.2
2022-12-19T07:13:21.610Z,8.3
2022-12-19T07:18:27.817Z,8.4
2022-12-19T07:23:34.071Z,8.5
2022-12-19T07:28:40.237Z,8.6
2022-12-19T07:33:46.444Z,8.7
2022-12-19T07:38:52.641Z,8.8
2022-12-19T07:43:58.848Z,8.9
2022-12-19T07:49:05.069Z,9.0
2022-12-19T07:54:11.275Z,9.0
2022-12-19T07:59:17.477Z,9.0
2022-12-19T08:04:23.721Z,9.1
2022-12-19T08:09:29.969Z,9.1
2022-12-19T08:14:36.105Z,9.2
2022-12-19T08:19:42.316Z,9.2
2022-12-19T08:24:48.607Z,9.2
2022-12-19T08:29:54.734Z,9.3
2022-12-19T08:35:00.924Z,9.3
2022-12-19T08:40:07.133Z,9.3
2022-12-19T08:45:13.344Z,9.4
2022-12-19T08:50:19.558Z,9.4
2022-12-19T08:55:25.752Z,9.4
2022-12-19T09:00:31.967Z,9.5
2022-12-19T09:06:03.131Z,9.5
2022-12-19T09:10:44.406Z,9.5
2022-12-19T09:15:50.590Z,9.5
2022-12-19T09:20:56.793Z,9.6
2022-12-19T09:26:03.036Z,9.6
2022-12-19T09:31:09.299Z,9.6
2022-12-19T09:36:15.444Z,9.6
2022-12-19T09:41:21.632Z,9.7
2022-12-19T09:46:27.876Z,9.7
2022-12-19T09:51:34.047Z,9.8
2022-12-19T09:56:46.453Z,9.8
2022-12-19T10:01:46.594Z,9.8
2022-12-19T10:07:19.813Z,9.9
2022-12-19T10:12:43.159Z,9.9
2022-12-19T10:22:18.558Z,10.0
2022-12-19T10:27:17.509Z,10.1
2022-12-19T10:32:23.700Z,10.1
2022-12-19T10:37:40.713Z,10.2
2022-12-19T10:42:36.125Z,10.2
2022-12-19T10:47:42.353Z,10.3
2022-12-19T10:52:48.567Z,10.3
2022-12-19T10:57:53.794Z,10.4
2022-12-19T11:03:00.121Z,10.4
2022-12-19T11:08:06.186Z,10.5
2022-12-19T11:19:21.212Z,10.5
2022-12-19T11:26:27.497Z,10.5
2022-12-19T11:30:09.735Z,10.6
2022-12-19T11:30:39.551Z,10.6
2022-12-19T11:33:36.280Z,10.6
2022-12-19T11:38:42.436Z,10.7
2022-12-19T11:43:48.665Z,10.7
2022-12-19T11:48:54.877Z,10.7
2022-12-19T11:54:01.062Z,10.8
2022-12-19T11:59:07.290Z,10.8
2022-12-19T12:04:13.635Z,10.8
2022-12-19T12:12:56.723Z,10.9
2022-12-19T12:22:01.906Z,10.9
2022-12-19T12:31:22.672Z,11.0
2022-12-19T12:31:23.269Z,11.0
2022-12-19T12:31:44.255Z,11.1
2022-12-19T12:35:51.347Z,11.1
2022-12-19T12:39:56.936Z,11.2
2022-12-19T12:45:03.151Z,11.3
2022-12-19T12:50:09.411Z,11.3
2022-12-19T12:55:15.567Z,11.4
2022-12-19T13:00:21.766Z,11.4
2022-12-19T13:05:27.999Z,11.4
2022-12-19T13:10:34.193Z,11.5
2022-12-19T13:15:40.401Z,11.5
2022-12-19T13:20:46.646Z,11.6
2022-12-19T13:25:52.826Z,11.6
2022-12-19T13:31:19.631Z,11.6
2022-12-19T13:39:51.894Z,11.7
2022-12-19T13:41:11.432Z,11.7
2022-12-19T13:46:17.713Z,11.7
2022-12-19T13:51:23.873Z,11.8
2022-12-19T13:56:30.273Z,11.8
2022-12-19T14:01:36.379Z,11.8
2022-12-19T14:06:42.471Z,11.8
2022-12-19T14:16:54.892Z,11.9
2022-12-19T14:22:06.855Z,11.9
2022-12-19T14:28:16.785Z,11.9
2022-12-19T14:33:39.530Z,11.9
2022-12-19T14:37:31.529Z,11.9
2022-12-19T14:43:14.846Z,11.9
2022-12-19T14:52:34.482Z,11.9
2022-12-19T14:54:48.108Z,11.9
2022-12-19T14:58:54.241Z,11.9
2022-12-19T15:02:50.917Z,12.0
2022-12-19T15:07:56.974Z,12.0
2022-12-19T15:14:52.305Z,12.0
2022-12-19T15:18:09.387Z,12.0
2022-12-19T15:23:21.751Z,12.0
2022-12-19T15:28:21.818Z,12.0
2022-12-19T15:33:28.011Z,12.0
2022-12-19T15:38:34.214Z,12.0
2022-12-19T15:44:03.214Z,12.0
2022-12-19T15:48:46.629Z,12.0
2022-12-19T15:53:53.560Z,12.0
2022-12-19T15:58:59.049Z,12.0
2022-12-19T16:04:05.688Z,12.0
2022-12-19T16:09:11.484Z,12.0
2022-12-19T16:14:17.846Z,12.0
2022-12-19T16:19:23.878Z,12.0
2022-12-19T16:24:30.089Z,12.0
2022-12-19T16:29:40.921Z,12.0
2022-12-19T16:34:42.535Z,12.0
2022-12-19T16:39:48.709Z,12.0
2022-12-19T16:44:54.919Z,12.0
2022-12-19T16:50:01.132Z,12.0
2022-12-19T16:55:07.647Z,12.0
2022-12-19T17:00:12.559Z,12.0
2022-12-19T17:05:18.881Z,12.0
2022-12-19T17:10:26.535Z,12.0
2022-12-19T17:15:31.184Z,12.0
2022-12-19T17:20:37.491Z,12.0
2022-12-19T17:25:43.610Z,12.1
2022-12-19T17:30:50.066Z,12.1
2022-12-19T17:35:56.013Z,12.1
2022-12-19T17:41:02.231Z,12.1
2022-12-19T17:46:08.600Z,12.1
2022-12-19T17:51:14.640Z,12.1
2022-12-19T17:56:20.873Z,12.2
2022-12-19T18:01:27.205Z,12.2
2022-12-19T18:06:33.273Z,12.2
2022-12-19T18:11:42.046Z,12.2
2022-12-19T18:16:45.775Z,12.3
2022-12-19T18:21:52.000Z,12.3
2022-12-19T18:26:58.093Z,12.3
2022-12-19T18:32:04.319Z,12.3
2022-12-19T18:37:10.508Z,12.4
2022-12-19T18:42:16.720Z,12.4
2022-12-19T18:47:23.121Z,12.4
2022-12-19T18:52:29.144Z,12.4
2022-12-19T18:57:35.346Z,12.4
2022-12-19T19:02:41.647Z,12.4
2022-12-19T19:07:47.764Z,12.4
2022-12-19T19:12:53.974Z,12.5
2022-12-19T19:18:00.173Z,12.4
2022-12-19T19:23:06.389Z,12.5
2022-12-19T19:28:12.608Z,12.5
2022-12-19T19:33:19.001Z,12.5
2022-12-19T19:38:25.013Z,12.5
2022-12-19T19:43:31.222Z,12.5
2022-12-19T19:48:37.436Z,12.5
2022-12-19T19:53:43.627Z,12.5
2022-12-19T19:58:49.853Z,12.5
2022-12-19T20:03:56.121Z,12.5
2022-12-19T20:09:02.295Z,12.5
2022-12-19T20:14:08.468Z,12.5
2022-12-19T20:19:14.664Z,12.5
2022-12-19T20:24:20.924Z,12.6
2022-12-19T20:29:27.090Z,12.5
2022-12-19T20:34:33.320Z,12.5
2022-12-19T20:39:39.509Z,12.6
2022-12-19T20:44:45.752Z,12.6
2022-12-19T20:49:51.941Z,12.6
2022-12-19T20:54:58.136Z,12.6
2022-12-19T21:00:04.386Z,12.6
2022-12-19T21:05:10.624Z,12.5
2022-12-19T21:10:16.766Z,12.5
2022-12-19T21:15:22.969Z,12.5
2022-12-19T21:20:34.219Z,12.5
2022-12-19T21:25:35.380Z,12.4
2022-12-19T21:30:41.592Z,12.4
2022-12-19T21:35:47.809Z,12.4
2022-12-19T21:40:54.006Z,12.3
2022-12-19T21:46:00.208Z,12.3
2022-12-19T21:51:06.411Z,12.3
2022-12-19T21:56:12.636Z,12.2
2022-12-19T22:01:19.135Z,12.2
2022-12-19T22:06:28.321Z,12.2
2022-12-19T22:11:31.270Z,12.2
2022-12-19T22:16:37.581Z,12.2
2022-12-19T22:21:43.680Z,12.2
2022-12-19T22:26:49.876Z,12.2
2022-12-19T22:31:56.146Z,12.3
2022-12-19T22:37:01.425Z,12.2
2022-12-19T22:42:07.507Z,12.2
2022-12-19T22:47:13.721Z,12.1
2022-12-19T22:52:19.938Z,12.0
2022-12-19T22:57:26.138Z,11.9
2022-12-19T23:02:32.527Z,11.9
2022-12-19T23:07:38.552Z,11.8
2022-12-19T23:12:44.760Z,11.7
2022-12-19T23:17:50.966Z,11.7
2022-12-19T23:22:57.186Z,11.6
2022-12-19T23:28:03.389Z,11.6
2022-12-19T23:33:09.592Z,11.6
2022-12-19T23:38:15.833Z,11.6
2022-12-19T23:43:22.030Z,11.6
2022-12-19T23:48:28.217Z,11.6
2022-12-19T23:53:34.424Z,11.7
2022-12-19T23:58:40.659Z,11.8
